LFOP 171000Z AUTO 24018KT 9999 BKN031 BKN090 BKN120 10/05 Q1015 TEMPO 25020G35KT 3000 SHRA BKN020CB

ElémentsDécodage
LFOP Station météo située sur l'aérodrome de ROUEN Vallée-de-Seine
171000Z émis le 17 du mois à 10h00 UTC
AUTO Bulletin édité par un automate
24018KT vent du 240°, 18 noeuds
9999 visibilité horizontale supérieure à 10 Km
BKN031 nuages morcelés (5/8 à 7/8) à 3100 pieds
BKN090 nuages morcelés (5/8 à 7/8) à 9000 pieds
BKN120 nuages morcelés (5/8 à 7/8) à 12000 pieds
10/05 température 10°C, point de rosée 05°C
 soit une humidité relative de 71%
Q1015 la pression au niveau de la mer (QNH) est de 1015 hPa
TEMPO fluctuation temporaire prévue
25020G35KT vent du 250°, moyenne: 20 noeuds, avec rafales à 35 noeuds
3000 visibilité horizontale de 3000 mètres
SHRA averse(s) de pluie
BKN020CB nuages morcelés (5/8 à 7/8) à 2000 pieds
 présence de cumulonimbus